createdAt,value
2018-09-30T00:00:32.961Z,62.69
2018-09-30T00:03:00.502Z,62.65
2018-09-30T00:05:29.259Z,62.48
2018-09-30T00:07:57.266Z,62.19
2018-09-30T00:10:24.789Z,62.84
2018-09-30T00:12:52.312Z,62.80
2018-09-30T00:15:21.180Z,62.42
2018-09-30T00:17:49.610Z,62.76
2018-09-30T00:20:17.207Z,62.44
2018-09-30T00:22:45.115Z,62.63
2018-09-30T00:25:19.111Z,63.03
2018-09-30T00:27:46.671Z,63.11
2018-09-30T00:30:14.622Z,62.99
2018-09-30T00:32:42.184Z,63.29
2018-09-30T00:35:10.579Z,63.04
2018-09-30T00:37:38.480Z,63.17
2018-09-30T00:40:06.094Z,63.18
2018-09-30T00:42:33.645Z,62.82
2018-09-30T00:45:01.660Z,62.99
2018-09-30T00:47:29.208Z,63.17
2018-09-30T00:49:56.738Z,63.44
2018-09-30T00:52:25.636Z,63.18
2018-09-30T00:54:54.891Z,63.36
2018-09-30T00:57:22.489Z,62.85
2018-09-30T00:59:50.450Z,63.48
2018-09-30T01:02:18.938Z,62.87
2018-09-30T01:04:46.495Z,63.41
2018-09-30T01:07:14.504Z,63.64
2018-09-30T01:09:42.096Z,63.13
2018-09-30T01:12:09.650Z,63.50
2018-09-30T01:14:37.665Z,63.44
2018-09-30T01:17:05.201Z,63.53
2018-09-30T01:19:32.775Z,63.63
2018-09-30T01:22:01.438Z,63.70
2018-09-30T01:24:29.018Z,63.87
2018-09-30T01:26:56.631Z,63.52
2018-09-30T01:29:24.662Z,63.56
2018-09-30T01:31:52.207Z,63.59
2018-09-30T01:34:20.356Z,63.64
2018-09-30T01:36:48.265Z,63.21
2018-09-30T01:39:15.849Z,63.12
2018-09-30T01:41:43.400Z,63.19
2018-09-30T01:44:11.428Z,63.03
2018-09-30T01:46:39.007Z,62.93
2018-09-30T01:49:06.607Z,62.96
2018-09-30T01:51:34.628Z,62.85
2018-09-30T01:54:02.185Z,63.02
2018-09-30T01:56:29.750Z,63.09
2018-09-30T01:58:57.597Z,63.06
2018-09-30T02:01:25.995Z,63.17
2018-09-30T02:03:53.580Z,63.00
2018-09-30T02:06:22.394Z,63.19
2018-09-30T02:08:50.348Z,63.51
2018-09-30T02:11:18.008Z,63.58
2018-09-30T02:13:45.546Z,63.90
2018-09-30T02:16:13.151Z,63.65
2018-09-30T02:18:40.766Z,63.98
2018-09-30T02:21:08.677Z,63.92
2018-09-30T02:23:36.832Z,64.04
2018-09-30T02:26:04.506Z,63.85
2018-09-30T02:28:32.086Z,64.44
2018-09-30T02:31:00.100Z,64.06
2018-09-30T02:33:27.696Z,64.17
2018-09-30T02:35:56.336Z,64.43
2018-09-30T02:38:23.908Z,63.85
2018-09-30T02:40:52.293Z,64.09
2018-09-30T02:43:20.921Z,64.20
2018-09-30T02:45:48.498Z,64.27
2018-09-30T02:48:16.158Z,64.21
2018-09-30T02:50:43.723Z,64.00
2018-09-30T02:53:12.600Z,64.38
2018-09-30T02:55:40.435Z,64.72
2018-09-30T02:58:10.907Z,64.23
2018-09-30T03:00:38.495Z,64.62
2018-09-30T03:03:06.470Z,64.75
2018-09-30T03:05:35.864Z,64.67
2018-09-30T03:08:08.493Z,64.82
2018-09-30T03:10:36.103Z,64.61
2018-09-30T03:13:04.103Z,64.45
2018-09-30T03:15:32.313Z,64.77
2018-09-30T03:17:59.937Z,64.63
2018-09-30T03:20:28.409Z,64.33
2018-09-30T03:22:56.758Z,64.68
2018-09-30T03:25:25.266Z,64.35
2018-09-30T03:27:53.784Z,64.22
2018-09-30T03:30:24.538Z,64.58
2018-09-30T03:32:53.296Z,64.13
2018-09-30T03:35:21.451Z,64.90
2018-09-30T03:37:50.972Z,64.68
2018-09-30T03:40:20.667Z,64.73
2018-09-30T03:42:48.501Z,64.99
2018-09-30T03:45:16.103Z,64.95
2018-09-30T03:47:45.211Z,64.99
2018-09-30T03:50:13.811Z,64.73
2018-09-30T03:52:42.410Z,64.93
2018-09-30T03:55:10.514Z,64.85
2018-09-30T03:57:41.457Z,64.60
2018-09-30T04:00:11.048Z,64.60
2018-09-30T04:02:38.669Z,64.37
2018-09-30T04:05:08.715Z,64.78
2018-09-30T04:07:37.901Z,64.46
2018-09-30T04:10:05.595Z,64.17
2018-09-30T04:12:33.355Z,64.43
2018-09-30T04:15:04.873Z,64.50
2018-09-30T04:17:32.499Z,64.78
2018-09-30T04:20:00.018Z,64.70
2018-09-30T04:22:29.418Z,64.47
2018-09-30T04:24:56.980Z,64.80
2018-09-30T04:27:25.289Z,64.91
2018-09-30T04:29:53.065Z,65.17
2018-09-30T04:32:27.144Z,64.91
2018-09-30T04:34:54.767Z,65.05
2018-09-30T04:37:22.522Z,65.07
2018-09-30T04:39:50.099Z,65.18
2018-09-30T04:42:18.554Z,65.31
2018-09-30T04:44:46.110Z,65.51
2018-09-30T04:47:13.655Z,65.61
2018-09-30T04:49:42.682Z,65.58
2018-09-30T04:52:11.237Z,65.73
2018-09-30T04:54:39.796Z,66.14
2018-09-30T04:57:07.794Z,65.95
2018-09-30T04:59:35.932Z,65.94
2018-09-30T05:02:04.200Z,66.01
2018-09-30T05:04:31.751Z,66.08
2018-09-30T05:06:59.755Z,66.11
2018-09-30T05:09:28.365Z,66.11
2018-09-30T05:11:56.850Z,66.36
2018-09-30T05:14:25.277Z,66.04
2018-09-30T05:16:52.879Z,66.11
2018-09-30T05:19:21.386Z,65.84
2018-09-30T05:21:48.920Z,66.01
2018-09-30T05:24:16.804Z,66.06
2018-09-30T05:26:46.098Z,65.99
2018-09-30T05:29:13.660Z,65.75
2018-09-30T05:31:41.350Z,66.02
2018-09-30T05:34:09.265Z,65.73
2018-09-30T05:36:36.804Z,65.91
2018-09-30T05:39:06.458Z,65.70
2018-09-30T05:41:34.958Z,66.06
2018-09-30T05:44:03.365Z,65.82
2018-09-30T05:46:32.049Z,65.83
2018-09-30T05:48:59.868Z,65.31
2018-09-30T05:51:27.467Z,64.92
2018-09-30T05:53:56.526Z,65.04
2018-09-30T05:56:25.475Z,64.81
2018-09-30T05:58:53.262Z,64.81
2018-09-30T06:01:20.844Z,65.10
2018-09-30T06:03:50.631Z,64.78
2018-09-30T06:06:18.228Z,64.59
2018-09-30T06:08:46.395Z,64.85
2018-09-30T06:11:14.292Z,64.60
2018-09-30T06:13:44.359Z,64.36
2018-09-30T06:16:12.656Z,64.82
2018-09-30T06:18:41.403Z,64.48
2018-09-30T06:21:09.807Z,64.10
2018-09-30T06:23:37.371Z,64.43
2018-09-30T06:26:07.214Z,63.95
2018-09-30T06:28:36.481Z,63.90
2018-09-30T06:31:04.039Z,63.91
2018-09-30T06:33:31.658Z,64.19
2018-09-30T06:36:01.114Z,63.81
2018-09-30T06:38:28.675Z,63.91
2018-09-30T06:40:56.715Z,63.72
2018-09-30T06:43:24.303Z,63.79
2018-09-30T06:45:52.297Z,63.32
2018-09-30T06:48:19.894Z,63.39
2018-09-30T06:50:47.852Z,63.38
2018-09-30T06:53:15.818Z,62.93
2018-09-30T06:55:46.227Z,62.85
2018-09-30T06:58:13.806Z,62.86
2018-09-30T07:00:42.785Z,62.36
2018-09-30T07:03:12.232Z,62.17
2018-09-30T07:05:40.378Z,61.92
2018-09-30T07:08:07.973Z,61.73
2018-09-30T07:10:36.738Z,61.57
2018-09-30T07:13:04.451Z,61.65
2018-09-30T07:15:33.232Z,61.18
2018-09-30T07:18:02.787Z,60.92
2018-09-30T07:20:30.563Z,60.59
2018-09-30T07:23:00.339Z,60.55
2018-09-30T07:25:29.167Z,60.21
2018-09-30T07:27:56.804Z,60.39
2018-09-30T07:30:24.405Z,59.83
2018-09-30T07:32:53.398Z,59.74
2018-09-30T07:35:21.764Z,59.51
2018-09-30T07:37:49.698Z,59.16
2018-09-30T07:40:18.646Z,58.64
2018-09-30T07:42:47.321Z,58.34
2018-09-30T07:45:15.486Z,58.49
2018-09-30T07:47:43.867Z,58.25
2018-09-30T07:50:12.366Z,57.69
2018-09-30T07:52:40.005Z,57.54
2018-09-30T07:55:07.890Z,57.00
2018-09-30T07:57:37.362Z,56.82
2018-09-30T08:00:04.892Z,57.08
2018-09-30T08:02:33.678Z,56.72
2018-09-30T08:05:04.838Z,56.23
2018-09-30T08:07:32.537Z,56.17
2018-09-30T08:10:00.477Z,55.69
2018-09-30T08:12:28.685Z,55.85
2018-09-30T08:14:56.211Z,55.47
2018-09-30T08:17:25.616Z,55.37
2018-09-30T08:19:53.984Z,54.71
2018-09-30T08:22:22.505Z,54.03
2018-09-30T08:24:55.699Z,53.62
2018-09-30T08:27:24.278Z,53.70
2018-09-30T08:29:52.177Z,53.02
2018-09-30T08:32:21.283Z,53.04
2018-09-30T08:34:51.277Z,52.98
2018-09-30T08:38:23.588Z,52.54
2018-09-30T08:40:56.630Z,52.27
2018-09-30T08:43:24.342Z,52.56
2018-09-30T08:45:54.261Z,51.70
2018-09-30T08:48:21.838Z,51.82
2018-09-30T08:50:50.606Z,52.11
2018-09-30T08:53:18.520Z,51.70
2018-09-30T08:55:46.191Z,51.75
2018-09-30T08:58:14.734Z,51.53
2018-09-30T09:00:44.303Z,51.06
2018-09-30T09:03:12.923Z,50.77
2018-09-30T09:05:41.454Z,50.48
2018-09-30T09:08:10.622Z,50.03
2018-09-30T09:10:39.329Z,50.53
2018-09-30T09:13:06.899Z,49.88
2018-09-30T09:15:34.973Z,49.55
2018-09-30T09:18:02.571Z,49.38
2018-09-30T09:20:30.126Z,49.23
2018-09-30T09:22:58.050Z,48.82
2018-09-30T09:25:25.962Z,48.93
2018-09-30T09:27:53.544Z,48.55
2018-09-30T09:30:23.359Z,48.19
2018-09-30T09:32:50.919Z,47.50
2018-09-30T09:35:18.448Z,46.75
2018-09-30T09:37:46.459Z,44.73
2018-09-30T09:40:14.988Z,43.95
2018-09-30T09:42:43.338Z,42.62
2018-09-30T09:45:15.295Z,41.99
2018-09-30T09:47:44.757Z,40.82
2018-09-30T09:50:12.304Z,40.25
2018-09-30T09:52:42.819Z,39.51
2018-09-30T09:55:11.299Z,38.63
2018-09-30T09:57:40.256Z,37.42
2018-09-30T10:00:08.081Z,36.97
2018-09-30T10:02:35.723Z,37.06
2018-09-30T10:05:05.095Z,36.04
2018-09-30T10:07:34.681Z,35.35
2018-09-30T10:10:04.796Z,35.02
2018-09-30T10:12:35.157Z,34.29
2018-09-30T10:15:03.086Z,33.77
2018-09-30T10:17:32.743Z,33.68
2018-09-30T10:20:00.302Z,33.56
2018-09-30T10:22:30.716Z,33.85
2018-09-30T10:25:02.592Z,34.01
2018-09-30T10:27:30.169Z,33.64
2018-09-30T10:29:59.218Z,32.84
2018-09-30T10:32:38.556Z,32.46
2018-09-30T10:35:09.641Z,32.78
2018-09-30T10:37:37.483Z,31.84
2018-09-30T10:40:07.653Z,32.66
2018-09-30T10:42:35.663Z,31.88
2018-09-30T10:45:05.297Z,32.10
2018-09-30T10:47:35.313Z,32.21
2018-09-30T10:50:05.483Z,32.65
2018-09-30T10:52:33.904Z,32.82
2018-09-30T10:55:01.478Z,31.99
2018-09-30T10:57:29.430Z,32.61
2018-09-30T10:59:57.027Z,32.13
2018-09-30T11:02:25.503Z,31.67
2018-09-30T11:04:54.805Z,32.04
2018-09-30T11:07:23.454Z,32.53
2018-09-30T11:09:51.459Z,33.39
2018-09-30T11:12:20.410Z,32.32
2018-09-30T11:14:49.691Z,31.64
2018-09-30T11:17:18.308Z,31.09
2018-09-30T11:19:45.837Z,31.07
2018-09-30T11:22:15.163Z,30.89
2018-09-30T11:24:43.073Z,30.40
2018-09-30T11:27:11.122Z,30.21
2018-09-30T11:29:38.676Z,29.39
2018-09-30T11:32:06.667Z,29.22
2018-09-30T11:34:41.167Z,30.74
2018-09-30T11:37:10.126Z,30.14
2018-09-30T11:39:38.863Z,30.46
2018-09-30T11:42:10.096Z,30.06
2018-09-30T11:44:41.199Z,29.36
2018-09-30T11:47:09.235Z,30.12
2018-09-30T11:49:38.426Z,30.58
2018-09-30T11:52:08.793Z,31.19
2018-09-30T11:54:38.260Z,31.63
2018-09-30T11:57:06.573Z,32.40
2018-09-30T11:59:34.916Z,32.17
2018-09-30T12:02:02.817Z,31.32
2018-09-30T12:04:31.168Z,30.00
2018-09-30T12:06:58.705Z,29.69
2018-09-30T12:09:26.582Z,31.13
2018-09-30T12:11:56.577Z,30.66
2018-09-30T12:14:24.836Z,31.25
2018-09-30T12:16:55.646Z,30.01
2018-09-30T12:19:25.082Z,30.31
2018-09-30T12:21:53.632Z,29.95
2018-09-30T12:24:24.539Z,28.95
2018-09-30T12:26:52.111Z,29.96
2018-09-30T12:29:23.405Z,29.90
2018-09-30T12:31:51.285Z,30.23
2018-09-30T12:34:22.245Z,30.73
2018-09-30T12:36:52.924Z,32.17
2018-09-30T12:39:21.394Z,32.33
2018-09-30T12:41:50.798Z,34.28
2018-09-30T12:44:19.986Z,35.71
2018-09-30T12:46:48.701Z,36.19
2018-09-30T12:49:16.322Z,37.25
2018-09-30T12:51:44.603Z,37.86
2018-09-30T12:54:14.293Z,39.08
2018-09-30T12:56:41.855Z,39.74
2018-09-30T12:59:10.343Z,40.15
2018-09-30T13:01:39.921Z,39.86
2018-09-30T13:04:07.476Z,40.20
2018-09-30T13:06:36.882Z,40.44
2018-09-30T13:09:11.571Z,40.94
2018-09-30T13:11:43.730Z,40.33
2018-09-30T13:14:11.877Z,41.16
2018-09-30T13:16:40.558Z,41.18
2018-09-30T13:19:08.140Z,41.53
2018-09-30T13:21:37.294Z,40.56
2018-09-30T13:24:07.739Z,41.39
2018-09-30T13:26:39.221Z,41.19
2018-09-30T13:29:07.821Z,40.43
2018-09-30T13:31:37.706Z,40.94
2018-09-30T13:34:05.286Z,40.62
2018-09-30T13:36:33.563Z,40.63
2018-09-30T13:39:02.251Z,41.08
2018-09-30T13:41:30.786Z,40.27
2018-09-30T13:43:58.484Z,40.73
2018-09-30T13:46:26.390Z,40.76
2018-09-30T13:48:53.981Z,40.16
2018-09-30T13:51:25.174Z,40.55
2018-09-30T13:53:54.446Z,40.23
2018-09-30T13:56:21.991Z,40.59
2018-09-30T13:58:49.525Z,39.93
2018-09-30T14:01:17.530Z,39.76
2018-09-30T14:03:46.386Z,39.45
2018-09-30T14:06:16.121Z,39.94
2018-09-30T14:08:45.217Z,40.18
2018-09-30T14:11:13.378Z,40.03
2018-09-30T14:13:41.889Z,39.76
2018-09-30T14:16:11.910Z,39.92
2018-09-30T14:18:41.042Z,38.83
2018-09-30T14:21:10.856Z,39.85
2018-09-30T14:23:40.723Z,39.64
2018-09-30T14:26:08.303Z,39.51
2018-09-30T14:28:36.487Z,39.34
2018-09-30T14:31:08.767Z,38.94
2018-09-30T14:36:14.797Z,38.74
2018-09-30T14:38:44.270Z,38.58
2018-09-30T14:41:13.051Z,38.47
2018-09-30T14:43:43.225Z,38.52
2018-09-30T14:46:10.802Z,39.16
2018-09-30T14:48:39.364Z,38.31
2018-09-30T14:51:08.054Z,38.94
2018-09-30T14:53:35.762Z,38.18
2018-09-30T14:56:05.767Z,38.35
2018-09-30T14:58:35.422Z,38.04
2018-09-30T15:01:03.796Z,37.82
2018-09-30T15:03:31.399Z,37.83
2018-09-30T15:06:00.190Z,38.25
2018-09-30T15:08:31.017Z,37.55
2018-09-30T15:11:00.543Z,37.47
2018-09-30T15:13:29.109Z,38.19
2018-09-30T15:15:59.349Z,37.32
2018-09-30T15:18:29.064Z,37.38
2018-09-30T15:20:56.624Z,37.31
2018-09-30T15:23:24.386Z,36.38
2018-09-30T15:25:53.071Z,36.88
2018-09-30T15:28:21.152Z,36.36
2018-09-30T15:30:57.428Z,35.26
2018-09-30T15:33:29.209Z,34.89
2018-09-30T15:35:58.121Z,35.84
2018-09-30T15:38:26.370Z,34.96
2018-09-30T15:40:54.232Z,35.15
2018-09-30T15:43:22.543Z,36.01
2018-09-30T15:45:50.086Z,36.70
2018-09-30T15:48:24.585Z,37.66
2018-09-30T15:50:53.321Z,37.90
2018-09-30T15:53:21.977Z,38.96
2018-09-30T15:55:49.574Z,38.62
2018-09-30T15:58:18.872Z,39.07
2018-09-30T16:00:48.611Z,40.23
2018-09-30T16:03:18.410Z,39.68
2018-09-30T16:05:45.987Z,40.49
2018-09-30T16:08:18.532Z,40.57
2018-09-30T16:10:46.559Z,40.26
2018-09-30T16:13:15.864Z,41.01
2018-09-30T16:15:46.879Z,41.13
2018-09-30T16:18:15.296Z,41.53
2018-09-30T16:20:46.532Z,41.64
2018-09-30T16:23:14.584Z,41.60
2018-09-30T16:25:43.188Z,41.23
2018-09-30T16:28:12.602Z,41.27
2018-09-30T16:30:45.296Z,41.96
2018-09-30T16:33:14.014Z,42.08
2018-09-30T16:35:44.322Z,41.60
2018-09-30T16:38:13.238Z,42.57
2018-09-30T16:40:43.189Z,42.81
2018-09-30T16:43:13.438Z,42.72
2018-09-30T16:45:44.232Z,42.36
2018-09-30T16:50:49.212Z,43.57
2018-09-30T16:53:20.443Z,43.60
2018-09-30T16:55:48.729Z,44.01
2018-09-30T16:58:18.613Z,44.35
2018-09-30T17:00:46.602Z,44.34
2018-09-30T17:03:14.223Z,44.35
2018-09-30T17:05:42.776Z,44.32
2018-09-30T17:08:13.403Z,44.17
2018-09-30T17:10:41.235Z,44.35
2018-09-30T17:13:10.970Z,45.01
2018-09-30T17:15:39.678Z,44.79
2018-09-30T17:18:08.232Z,44.92
2018-09-30T17:20:39.482Z,45.68
2018-09-30T17:23:09.759Z,46.03
2018-09-30T17:25:39.274Z,46.04
2018-09-30T17:28:17.639Z,45.83
2018-09-30T17:30:49.326Z,45.85
2018-09-30T17:33:20.220Z,45.99
2018-09-30T17:35:50.133Z,46.25
2018-09-30T17:38:18.705Z,46.52
2018-09-30T17:40:46.391Z,46.85
2018-09-30T17:43:16.581Z,46.66
2018-09-30T17:45:45.258Z,47.37
2018-09-30T17:48:14.247Z,47.04
2018-09-30T17:50:46.546Z,47.38
2018-09-30T17:53:18.461Z,46.65
2018-09-30T17:55:46.294Z,46.69
2018-09-30T17:58:15.603Z,47.07
2018-09-30T18:00:45.522Z,47.34
2018-09-30T18:03:14.299Z,46.78
2018-09-30T18:05:44.961Z,47.07
2018-09-30T18:08:15.357Z,47.29
2018-09-30T18:10:42.923Z,47.42
2018-09-30T18:13:16.930Z,47.82
2018-09-30T18:18:32.451Z,48.22
2018-09-30T18:21:02.527Z,48.09
2018-09-30T18:23:31.338Z,48.40
2018-09-30T18:26:01.219Z,47.90
2018-09-30T18:28:28.784Z,47.80
2018-09-30T18:30:58.444Z,48.45
2018-09-30T18:33:30.306Z,47.66
2018-09-30T18:36:02.220Z,48.04
2018-09-30T18:38:30.483Z,48.33
2018-09-30T18:40:58.772Z,48.66
2018-09-30T18:43:27.750Z,48.40
2018-09-30T18:45:56.545Z,48.59
2018-09-30T18:48:26.183Z,48.74
2018-09-30T18:50:54.506Z,48.93
2018-09-30T18:53:22.567Z,49.31
2018-09-30T18:55:54.081Z,49.47
2018-09-30T18:58:22.184Z,49.07
2018-09-30T19:00:55.852Z,49.72
2018-09-30T19:03:25.428Z,49.95
2018-09-30T19:05:53.773Z,50.50
2018-09-30T19:08:30.561Z,51.10
2018-09-30T19:11:02.008Z,50.82
2018-09-30T19:13:32.771Z,51.05
2018-09-30T19:16:02.472Z,51.45
2018-09-30T19:18:30.778Z,51.68
2018-09-30T19:21:06.357Z,52.16
2018-09-30T19:23:36.231Z,51.92
2018-09-30T19:26:03.835Z,52.29
2018-09-30T19:28:37.608Z,52.10
2018-09-30T19:31:09.025Z,52.04
2018-09-30T19:33:37.427Z,52.62
2018-09-30T19:36:07.800Z,52.21
2018-09-30T19:38:35.386Z,52.78
2018-09-30T19:41:04.694Z,52.00
2018-09-30T19:43:36.494Z,52.53
2018-09-30T19:46:05.956Z,52.94
2018-09-30T19:48:35.527Z,52.55
2018-09-30T19:51:03.553Z,52.27
2018-09-30T19:53:31.361Z,53.08
2018-09-30T19:56:00.650Z,52.62
2018-09-30T19:58:28.563Z,52.35
2018-09-30T20:00:57.889Z,52.88
2018-09-30T20:03:29.000Z,53.01
2018-09-30T20:06:04.632Z,53.50
2018-09-30T20:08:32.842Z,52.93
2018-09-30T20:11:00.409Z,52.53
2018-09-30T20:13:29.223Z,52.99
2018-09-30T20:15:57.662Z,52.26
2018-09-30T20:18:25.904Z,52.62
2018-09-30T20:20:55.040Z,52.29
2018-09-30T20:23:22.566Z,51.93
2018-09-30T20:25:50.095Z,52.16
2018-09-30T20:28:18.069Z,51.61
2018-09-30T20:30:45.638Z,52.15
2018-09-30T20:33:13.458Z,52.16
2018-09-30T20:35:51.615Z,51.96
2018-09-30T20:38:20.845Z,52.01
2018-09-30T20:40:48.538Z,52.10
2018-09-30T20:43:17.120Z,51.53
2018-09-30T20:45:44.625Z,51.96
2018-09-30T20:48:17.030Z,52.24
2018-09-30T20:50:45.570Z,52.48
2018-09-30T20:53:13.230Z,52.33
2018-09-30T20:55:43.392Z,52.56
2018-09-30T20:58:15.793Z,52.58
2018-09-30T21:00:43.425Z,52.50
2018-09-30T21:03:13.797Z,53.04
2018-09-30T21:05:48.291Z,52.58
2018-09-30T21:08:17.951Z,52.91
2018-09-30T21:10:46.502Z,52.77
2018-09-30T21:13:16.551Z,52.95
2018-09-30T21:15:45.039Z,53.02
2018-09-30T21:18:13.446Z,52.63
2018-09-30T21:20:43.269Z,53.02
2018-09-30T21:23:10.815Z,52.82
2018-09-30T21:25:38.346Z,52.72
2018-09-30T21:28:06.397Z,53.02
2018-09-30T21:30:37.105Z,53.17
2018-09-30T21:33:07.728Z,52.83
2018-09-30T21:35:38.758Z,52.88
2018-09-30T21:38:07.959Z,52.95
2018-09-30T21:40:37.280Z,52.36
2018-09-30T21:43:09.167Z,52.74
2018-09-30T21:45:37.342Z,51.98
2018-09-30T21:48:05.550Z,52.46
2018-09-30T21:50:33.571Z,52.40
2018-09-30T21:53:01.094Z,52.20
2018-09-30T21:55:28.662Z,52.08
2018-09-30T21:57:56.541Z,52.58
2018-09-30T22:00:29.305Z,52.52
2018-09-30T22:02:56.842Z,52.86
2018-09-30T22:05:25.259Z,53.06
2018-09-30T22:07:56.809Z,52.42
2018-09-30T22:10:24.470Z,53.20
2018-09-30T22:12:52.374Z,53.11
2018-09-30T22:15:20.043Z,52.99
2018-09-30T22:17:51.842Z,52.76
2018-09-30T22:20:20.622Z,52.93
2018-09-30T22:22:50.146Z,52.74
2018-09-30T22:25:18.359Z,52.54
2018-09-30T22:27:46.621Z,52.57
2018-09-30T22:30:16.189Z,52.49
2018-09-30T22:32:43.860Z,52.51
2018-09-30T22:35:11.928Z,52.95
2018-09-30T22:37:39.457Z,52.67
2018-09-30T22:40:07.436Z,52.23
2018-09-30T22:42:35.386Z,52.68
2018-09-30T22:45:05.088Z,52.41
2018-09-30T22:47:32.644Z,52.10
2018-09-30T22:50:12.355Z,52.58
2018-09-30T22:52:40.935Z,52.36
2018-09-30T22:55:08.630Z,52.61
2018-09-30T22:57:36.531Z,52.98
2018-09-30T23:00:04.088Z,52.43
2018-09-30T23:02:31.617Z,52.80
2018-09-30T23:04:59.507Z,52.46
2018-09-30T23:07:27.091Z,52.49
2018-09-30T23:09:54.695Z,51.93
2018-09-30T23:12:25.278Z,52.51
2018-09-30T23:14:52.875Z,51.56
2018-09-30T23:17:21.060Z,51.60
2018-09-30T23:19:49.544Z,50.97
2018-09-30T23:22:17.089Z,51.53
2018-09-30T23:24:44.649Z,51.33
2018-09-30T23:27:12.554Z,51.57
2018-09-30T23:29:40.319Z,52.08
2018-09-30T23:32:08.549Z,52.11
2018-09-30T23:34:36.527Z,51.93
2018-09-30T23:37:04.084Z,51.81
2018-09-30T23:39:31.642Z,51.59
2018-09-30T23:42:00.596Z,51.20
2018-09-30T23:44:28.172Z,52.02
2018-09-30T23:46:56.250Z,51.99
2018-09-30T23:49:23.818Z,52.57
2018-09-30T23:51:51.827Z,52.35
2018-09-30T23:54:19.398Z,51.80
2018-09-30T23:56:46.979Z,52.04
2018-09-30T23:59:14.602Z,52.34
